sensor_id;sensor_type;location;lat;lon;timestamp;P1;durP1;ratioP1;P2;durP2;ratioP2
6185;SDS011;3126;52.738;8.316;2022-09-29T00:00:19;11.45;;;9.30;;
6185;SDS011;3126;52.738;8.316;2022-09-29T00:05:20;12.07;;;7.93;;
6185;SDS011;3126;52.738;8.316;2022-09-29T00:10:21;15.00;;;8.93;;
6185;SDS011;3126;52.738;8.316;2022-09-29T00:15:22;11.05;;;7.30;;
6185;SDS011;3126;52.738;8.316;2022-09-29T00:20:23;11.80;;;7.80;;
6185;SDS011;3126;52.738;8.316;2022-09-29T00:25:23;11.18;;;7.25;;
6185;SDS011;3126;52.738;8.316;2022-09-29T00:30:24;10.18;;;7.55;;
6185;SDS011;3126;52.738;8.316;2022-09-29T00:35:25;10.20;;;7.60;;
6185;SDS011;3126;52.738;8.316;2022-09-29T00:40:26;9.20;;;6.95;;
6185;SDS011;3126;52.738;8.316;2022-09-29T00:45:26;10.43;;;6.93;;
6185;SDS011;3126;52.738;8.316;2022-09-29T00:50:40;8.32;;;6.57;;
6185;SDS011;3126;52.738;8.316;2022-09-29T00:56:04;9.23;;;7.20;;
6185;SDS011;3126;52.738;8.316;2022-09-29T01:01:09;9.43;;;7.05;;
6185;SDS011;3126;52.738;8.316;2022-09-29T01:11:12;10.40;;;7.25;;
6185;SDS011;3126;52.738;8.316;2022-09-29T01:16:14;10.32;;;6.93;;
6185;SDS011;3126;52.738;8.316;2022-09-29T01:36:47;8.50;;;6.80;;
6185;SDS011;3126;52.738;8.316;2022-09-29T01:52:22;7.38;;;5.95;;
6185;SDS011;3126;52.738;8.316;2022-09-29T02:02:31;9.48;;;6.82;;
6185;SDS011;3126;52.738;8.316;2022-09-29T02:07:43;12.43;;;8.35;;
6185;SDS011;3126;52.738;8.316;2022-09-29T02:12:45;11.05;;;7.05;;
6185;SDS011;3126;52.738;8.316;2022-09-29T02:17:49;9.88;;;7.10;;
6185;SDS011;3126;52.738;8.316;2022-09-29T02:22:52;8.68;;;6.28;;
6185;SDS011;3126;52.738;8.316;2022-09-29T02:27:52;8.65;;;7.40;;
6185;SDS011;3126;52.738;8.316;2022-09-29T02:32:53;6.95;;;6.25;;
6185;SDS011;3126;52.738;8.316;2022-09-29T02:59:19;6.00;;;4.45;;
6185;SDS011;3126;52.738;8.316;2022-09-29T03:04:24;6.53;;;5.80;;
6185;SDS011;3126;52.738;8.316;2022-09-29T03:09:26;5.50;;;5.00;;
6185;SDS011;3126;52.738;8.316;2022-09-29T03:14:27;6.05;;;4.80;;
6185;SDS011;3126;52.738;8.316;2022-09-29T03:19:27;5.03;;;4.32;;
6185;SDS011;3126;52.738;8.316;2022-09-29T03:24:28;7.55;;;5.45;;
6185;SDS011;3126;52.738;8.316;2022-09-29T03:29:30;6.38;;;5.15;;
6185;SDS011;3126;52.738;8.316;2022-09-29T03:34:31;6.10;;;4.97;;
6185;SDS011;3126;52.738;8.316;2022-09-29T03:39:33;8.43;;;5.40;;
6185;SDS011;3126;52.738;8.316;2022-09-29T03:44:33;11.60;;;6.13;;
6185;SDS011;3126;52.738;8.316;2022-09-29T03:49:34;6.78;;;5.38;;
6185;SDS011;3126;52.738;8.316;2022-09-29T03:54:35;7.72;;;6.28;;
6185;SDS011;3126;52.738;8.316;2022-09-29T03:59:35;11.77;;;7.22;;
6185;SDS011;3126;52.738;8.316;2022-09-29T04:04:36;11.82;;;7.13;;
6185;SDS011;3126;52.738;8.316;2022-09-29T04:09:37;10.23;;;6.97;;
6185;SDS011;3126;52.738;8.316;2022-09-29T04:14:37;8.50;;;7.22;;
6185;SDS011;3126;52.738;8.316;2022-09-29T04:19:38;16.20;;;8.57;;
6185;SDS011;3126;52.738;8.316;2022-09-29T04:24:38;9.43;;;7.15;;
6185;SDS011;3126;52.738;8.316;2022-09-29T04:29:39;12.50;;;8.38;;
6185;SDS011;3126;52.738;8.316;2022-09-29T04:34:39;13.52;;;8.90;;
6185;SDS011;3126;52.738;8.316;2022-09-29T04:39:40;13.48;;;9.60;;
6185;SDS011;3126;52.738;8.316;2022-09-29T04:44:41;12.30;;;9.73;;
6185;SDS011;3126;52.738;8.316;2022-09-29T04:49:41;10.38;;;8.43;;
6185;SDS011;3126;52.738;8.316;2022-09-29T04:54:42;11.23;;;8.35;;
6185;SDS011;3126;52.738;8.316;2022-09-29T04:59:42;11.57;;;9.15;;
6185;SDS011;3126;52.738;8.316;2022-09-29T05:04:43;11.25;;;7.43;;
6185;SDS011;3126;52.738;8.316;2022-09-29T05:09:44;10.88;;;7.78;;
6185;SDS011;3126;52.738;8.316;2022-09-29T05:14:45;10.13;;;8.15;;
6185;SDS011;3126;52.738;8.316;2022-09-29T05:19:46;10.40;;;7.47;;
6185;SDS011;3126;52.738;8.316;2022-09-29T05:24:46;11.63;;;7.95;;
6185;SDS011;3126;52.738;8.316;2022-09-29T05:29:47;8.93;;;7.97;;
6185;SDS011;3126;52.738;8.316;2022-09-29T05:34:48;7.70;;;6.72;;
6185;SDS011;3126;52.738;8.316;2022-09-29T05:39:49;10.75;;;8.15;;
6185;SDS011;3126;52.738;8.316;2022-09-29T05:44:50;15.18;;;9.57;;
6185;SDS011;3126;52.738;8.316;2022-09-29T05:49:50;14.45;;;9.35;;
6185;SDS011;3126;52.738;8.316;2022-09-29T05:54:51;14.93;;;9.90;;
6185;SDS011;3126;52.738;8.316;2022-09-29T05:59:52;15.90;;;9.60;;
6185;SDS011;3126;52.738;8.316;2022-09-29T06:04:52;15.20;;;8.68;;
6185;SDS011;3126;52.738;8.316;2022-09-29T06:09:53;15.02;;;9.57;;
6185;SDS011;3126;52.738;8.316;2022-09-29T06:14:54;14.00;;;10.48;;
6185;SDS011;3126;52.738;8.316;2022-09-29T06:19:54;10.80;;;8.18;;
6185;SDS011;3126;52.738;8.316;2022-09-29T06:24:55;10.93;;;7.03;;
6185;SDS011;3126;52.738;8.316;2022-09-29T06:29:55;10.23;;;7.22;;
6185;SDS011;3126;52.738;8.316;2022-09-29T06:34:56;10.07;;;7.85;;
6185;SDS011;3126;52.738;8.316;2022-09-29T06:40:15;7.80;;;6.95;;
6185;SDS011;3126;52.738;8.316;2022-09-29T06:45:16;10.40;;;7.90;;
6185;SDS011;3126;52.738;8.316;2022-09-29T06:50:18;10.27;;;7.13;;
6185;SDS011;3126;52.738;8.316;2022-09-29T06:55:18;8.77;;;7.88;;
6185;SDS011;3126;52.738;8.316;2022-09-29T07:00:19;12.93;;;9.40;;
6185;SDS011;3126;52.738;8.316;2022-09-29T07:05:19;11.80;;;9.43;;
6185;SDS011;3126;52.738;8.316;2022-09-29T07:10:20;11.73;;;8.82;;
6185;SDS011;3126;52.738;8.316;2022-09-29T07:15:21;16.02;;;10.48;;
6185;SDS011;3126;52.738;8.316;2022-09-29T07:20:22;15.75;;;10.77;;
6185;SDS011;3126;52.738;8.316;2022-09-29T07:25:22;30.88;;;18.15;;
6185;SDS011;3126;52.738;8.316;2022-09-29T07:30:23;38.45;;;21.40;;
6185;SDS011;3126;52.738;8.316;2022-09-29T07:35:24;45.28;;;24.77;;
6185;SDS011;3126;52.738;8.316;2022-09-29T07:40:25;45.47;;;25.33;;
6185;SDS011;3126;52.738;8.316;2022-09-29T07:45:27;39.35;;;24.38;;
6185;SDS011;3126;52.738;8.316;2022-09-29T07:50:27;41.13;;;23.95;;
6185;SDS011;3126;52.738;8.316;2022-09-29T07:55:28;37.45;;;22.42;;
6185;SDS011;3126;52.738;8.316;2022-09-29T08:00:29;40.28;;;23.30;;
6185;SDS011;3126;52.738;8.316;2022-09-29T08:05:31;37.95;;;22.65;;
6185;SDS011;3126;52.738;8.316;2022-09-29T08:10:32;35.40;;;23.00;;
6185;SDS011;3126;52.738;8.316;2022-09-29T08:15:33;34.92;;;21.15;;
6185;SDS011;3126;52.738;8.316;2022-09-29T08:20:34;32.70;;;19.55;;
6185;SDS011;3126;52.738;8.316;2022-09-29T08:25:37;32.92;;;21.88;;
6185;SDS011;3126;52.738;8.316;2022-09-29T08:30:38;31.58;;;20.30;;
6185;SDS011;3126;52.738;8.316;2022-09-29T08:35:39;29.90;;;19.15;;
6185;SDS011;3126;52.738;8.316;2022-09-29T08:40:40;27.42;;;19.10;;
6185;SDS011;3126;52.738;8.316;2022-09-29T08:45:42;26.73;;;17.63;;
6185;SDS011;3126;52.738;8.316;2022-09-29T08:50:48;26.20;;;16.63;;
6185;SDS011;3126;52.738;8.316;2022-09-29T08:56:08;25.08;;;16.30;;
6185;SDS011;3126;52.738;8.316;2022-09-29T09:17:55;16.60;;;12.90;;
6185;SDS011;3126;52.738;8.316;2022-09-29T09:28:43;12.00;;;8.55;;
6185;SDS011;3126;52.738;8.316;2022-09-29T09:49:43;15.25;;;10.40;;
6185;SDS011;3126;52.738;8.316;2022-09-29T09:55:06;14.00;;;10.70;;
6185;SDS011;3126;52.738;8.316;2022-09-29T10:00:17;18.55;;;11.35;;
6185;SDS011;3126;52.738;8.316;2022-09-29T10:05:24;16.75;;;11.45;;
6185;SDS011;3126;52.738;8.316;2022-09-29T10:10:29;15.85;;;11.27;;
6185;SDS011;3126;52.738;8.316;2022-09-29T10:15:35;16.35;;;12.05;;
6185;SDS011;3126;52.738;8.316;2022-09-29T10:20:37;16.33;;;11.25;;
6185;SDS011;3126;52.738;8.316;2022-09-29T10:25:41;15.23;;;12.25;;
6185;SDS011;3126;52.738;8.316;2022-09-29T10:30:51;25.27;;;16.17;;
6185;SDS011;3126;52.738;8.316;2022-09-29T10:36:03;15.02;;;10.68;;
6185;SDS011;3126;52.738;8.316;2022-09-29T10:41:06;15.40;;;11.48;;
6185;SDS011;3126;52.738;8.316;2022-09-29T10:51:27;14.63;;;11.02;;
6185;SDS011;3126;52.738;8.316;2022-09-29T10:56:28;12.93;;;9.98;;
6185;SDS011;3126;52.738;8.316;2022-09-29T11:01:30;11.50;;;9.50;;
6185;SDS011;3126;52.738;8.316;2022-09-29T11:06:35;9.45;;;8.13;;
6185;SDS011;3126;52.738;8.316;2022-09-29T11:11:38;14.25;;;8.38;;
6185;SDS011;3126;52.738;8.316;2022-09-29T11:16:39;11.30;;;8.90;;
6185;SDS011;3126;52.738;8.316;2022-09-29T11:32:51;8.45;;;7.55;;
6185;SDS011;3126;52.738;8.316;2022-09-29T11:43:01;4.60;;;4.20;;
6185;SDS011;3126;52.738;8.316;2022-09-29T12:18:50;4.38;;;3.55;;
6185;SDS011;3126;52.738;8.316;2022-09-29T12:23:52;5.20;;;3.35;;
6185;SDS011;3126;52.738;8.316;2022-09-29T12:29:00;3.30;;;3.10;;
6185;SDS011;3126;52.738;8.316;2022-09-29T12:34:10;3.10;;;2.60;;
6185;SDS011;3126;52.738;8.316;2022-09-29T12:39:33;2.42;;;2.20;;
6185;SDS011;3126;52.738;8.316;2022-09-29T12:44:45;2.53;;;2.30;;
6185;SDS011;3126;52.738;8.316;2022-09-29T12:49:58;4.72;;;3.30;;
6185;SDS011;3126;52.738;8.316;2022-09-29T12:55:06;3.80;;;2.72;;
6185;SDS011;3126;52.738;8.316;2022-09-29T13:00:17;3.33;;;2.00;;
6185;SDS011;3126;52.738;8.316;2022-09-29T13:05:41;2.50;;;2.30;;
6185;SDS011;3126;52.738;8.316;2022-09-29T13:16:27;4.28;;;3.00;;
6185;SDS011;3126;52.738;8.316;2022-09-29T13:21:42;3.42;;;2.78;;
6185;SDS011;3126;52.738;8.316;2022-09-29T13:31:57;4.13;;;3.40;;
6185;SDS011;3126;52.738;8.316;2022-09-29T13:37:06;3.20;;;2.90;;
6185;SDS011;3126;52.738;8.316;2022-09-29T13:42:36;5.47;;;2.80;;
6185;SDS011;3126;52.738;8.316;2022-09-29T13:47:38;4.75;;;3.67;;
6185;SDS011;3126;52.738;8.316;2022-09-29T13:52:44;3.95;;;2.60;;
6185;SDS011;3126;52.738;8.316;2022-09-29T13:57:50;3.40;;;3.10;;
6185;SDS011;3126;52.738;8.316;2022-09-29T14:03:02;4.85;;;3.22;;
6185;SDS011;3126;52.738;8.316;2022-09-29T14:14:00;5.13;;;3.78;;
6185;SDS011;3126;52.738;8.316;2022-09-29T14:18:55;22.42;;;11.15;;
6185;SDS011;3126;52.738;8.316;2022-09-29T14:24:39;4.80;;;4.00;;
6185;SDS011;3126;52.738;8.316;2022-09-29T14:29:36;4.25;;;3.85;;
6185;SDS011;3126;52.738;8.316;2022-09-29T14:34:42;5.53;;;4.53;;
6185;SDS011;3126;52.738;8.316;2022-09-29T14:39:45;4.93;;;4.35;;
6185;SDS011;3126;52.738;8.316;2022-09-29T14:45:06;5.45;;;4.15;;
6185;SDS011;3126;52.738;8.316;2022-09-29T14:50:37;5.00;;;4.45;;
6185;SDS011;3126;52.738;8.316;2022-09-29T14:56:16;6.15;;;4.68;;
6185;SDS011;3126;52.738;8.316;2022-09-29T15:01:27;5.32;;;4.53;;
6185;SDS011;3126;52.738;8.316;2022-09-29T15:06:28;4.80;;;4.30;;
6185;SDS011;3126;52.738;8.316;2022-09-29T15:11:40;5.72;;;5.10;;
6185;SDS011;3126;52.738;8.316;2022-09-29T15:27:32;5.57;;;4.97;;
6185;SDS011;3126;52.738;8.316;2022-09-29T15:32:33;6.38;;;4.68;;
6185;SDS011;3126;52.738;8.316;2022-09-29T15:42:50;4.78;;;4.28;;
6185;SDS011;3126;52.738;8.316;2022-09-29T15:47:59;4.72;;;3.42;;
6185;SDS011;3126;52.738;8.316;2022-09-29T15:53:01;4.30;;;2.95;;
6185;SDS011;3126;52.738;8.316;2022-09-29T15:58:32;2.75;;;2.20;;
6185;SDS011;3126;52.738;8.316;2022-09-29T16:03:28;2.50;;;2.17;;
6185;SDS011;3126;52.738;8.316;2022-09-29T16:08:47;2.50;;;2.30;;
6185;SDS011;3126;52.738;8.316;2022-09-29T16:13:50;2.25;;;2.05;;
6185;SDS011;3126;52.738;8.316;2022-09-29T16:18:57;7.15;;;4.55;;
6185;SDS011;3126;52.738;8.316;2022-09-29T16:39:22;16.08;;;11.43;;
6185;SDS011;3126;52.738;8.316;2022-09-29T16:44:29;7.75;;;4.55;;
6185;SDS011;3126;52.738;8.316;2022-09-29T16:49:35;3.90;;;3.60;;
6185;SDS011;3126;52.738;8.316;2022-09-29T17:00:20;3.08;;;2.78;;
6185;SDS011;3126;52.738;8.316;2022-09-29T17:05:21;3.20;;;2.55;;
6185;SDS011;3126;52.738;8.316;2022-09-29T17:10:22;3.22;;;2.17;;
6185;SDS011;3126;52.738;8.316;2022-09-29T17:15:23;3.63;;;2.78;;
6185;SDS011;3126;52.738;8.316;2022-09-29T17:20:26;2.10;;;2.00;;
6185;SDS011;3126;52.738;8.316;2022-09-29T17:25:31;1.55;;;1.40;;
6185;SDS011;3126;52.738;8.316;2022-09-29T17:30:32;1.98;;;1.77;;
6185;SDS011;3126;52.738;8.316;2022-09-29T17:35:35;2.95;;;1.60;;
6185;SDS011;3126;52.738;8.316;2022-09-29T17:45:44;2.13;;;1.73;;
6185;SDS011;3126;52.738;8.316;2022-09-29T17:50:47;2.05;;;1.73;;
6185;SDS011;3126;52.738;8.316;2022-09-29T17:55:49;5.45;;;4.10;;
6185;SDS011;3126;52.738;8.316;2022-09-29T18:00:53;5.75;;;4.40;;
6185;SDS011;3126;52.738;8.316;2022-09-29T18:05:56;5.75;;;2.97;;
6185;SDS011;3126;52.738;8.316;2022-09-29T18:10:59;3.03;;;2.22;;
6185;SDS011;3126;52.738;8.316;2022-09-29T18:16:00;2.85;;;1.90;;
6185;SDS011;3126;52.738;8.316;2022-09-29T18:21:02;1.80;;;1.70;;
6185;SDS011;3126;52.738;8.316;2022-09-29T18:26:05;8.52;;;5.03;;
6185;SDS011;3126;52.738;8.316;2022-09-29T18:31:27;12.90;;;7.70;;
6185;SDS011;3126;52.738;8.316;2022-09-29T18:36:27;9.25;;;5.38;;
6185;SDS011;3126;52.738;8.316;2022-09-29T18:41:29;26.17;;;15.13;;
6185;SDS011;3126;52.738;8.316;2022-09-29T18:46:30;9.48;;;7.15;;
6185;SDS011;3126;52.738;8.316;2022-09-29T18:51:32;7.38;;;6.13;;
6185;SDS011;3126;52.738;8.316;2022-09-29T18:56:33;4.78;;;4.25;;
6185;SDS011;3126;52.738;8.316;2022-09-29T19:01:34;4.90;;;4.45;;
6185;SDS011;3126;52.738;8.316;2022-09-29T19:06:35;5.13;;;4.30;;
6185;SDS011;3126;52.738;8.316;2022-09-29T19:11:36;8.77;;;6.03;;
6185;SDS011;3126;52.738;8.316;2022-09-29T19:16:37;8.05;;;5.28;;
6185;SDS011;3126;52.738;8.316;2022-09-29T19:21:38;5.97;;;4.40;;
6185;SDS011;3126;52.738;8.316;2022-09-29T19:26:40;5.18;;;4.38;;
6185;SDS011;3126;52.738;8.316;2022-09-29T19:31:41;5.60;;;4.70;;
6185;SDS011;3126;52.738;8.316;2022-09-29T19:36:42;5.20;;;4.53;;
6185;SDS011;3126;52.738;8.316;2022-09-29T19:41:43;5.60;;;4.95;;
6185;SDS011;3126;52.738;8.316;2022-09-29T19:46:44;5.57;;;5.07;;
6185;SDS011;3126;52.738;8.316;2022-09-29T19:51:45;5.78;;;5.18;;
6185;SDS011;3126;52.738;8.316;2022-09-29T19:56:53;5.65;;;5.15;;
6185;SDS011;3126;52.738;8.316;2022-09-29T20:01:54;6.07;;;4.40;;
6185;SDS011;3126;52.738;8.316;2022-09-29T20:06:57;4.57;;;4.18;;
6185;SDS011;3126;52.738;8.316;2022-09-29T20:11:58;4.00;;;3.60;;
6185;SDS011;3126;52.738;8.316;2022-09-29T20:16:59;4.53;;;4.10;;
6185;SDS011;3126;52.738;8.316;2022-09-29T20:22:00;4.10;;;3.67;;
6185;SDS011;3126;52.738;8.316;2022-09-29T20:27:01;5.05;;;4.38;;
6185;SDS011;3126;52.738;8.316;2022-09-29T20:32:02;4.55;;;4.18;;
6185;SDS011;3126;52.738;8.316;2022-09-29T20:37:04;5.22;;;3.70;;
6185;SDS011;3126;52.738;8.316;2022-09-29T20:42:05;4.10;;;3.70;;
6185;SDS011;3126;52.738;8.316;2022-09-29T20:47:06;6.03;;;4.80;;
6185;SDS011;3126;52.738;8.316;2022-09-29T20:52:07;7.03;;;5.90;;
6185;SDS011;3126;52.738;8.316;2022-09-29T20:57:08;6.90;;;4.72;;
6185;SDS011;3126;52.738;8.316;2022-09-29T21:02:10;4.88;;;4.35;;
6185;SDS011;3126;52.738;8.316;2022-09-29T21:07:11;5.85;;;4.68;;
6185;SDS011;3126;52.738;8.316;2022-09-29T21:12:31;7.95;;;5.97;;
6185;SDS011;3126;52.738;8.316;2022-09-29T21:17:33;8.93;;;6.85;;
6185;SDS011;3126;52.738;8.316;2022-09-29T21:22:34;6.28;;;5.45;;
6185;SDS011;3126;52.738;8.316;2022-09-29T21:27:35;6.75;;;4.72;;
6185;SDS011;3126;52.738;8.316;2022-09-29T21:32:36;5.07;;;4.55;;
6185;SDS011;3126;52.738;8.316;2022-09-29T21:37:36;7.85;;;5.53;;
6185;SDS011;3126;52.738;8.316;2022-09-29T21:42:37;8.50;;;5.53;;
6185;SDS011;3126;52.738;8.316;2022-09-29T21:47:37;6.18;;;5.20;;
6185;SDS011;3126;52.738;8.316;2022-09-29T21:53:07;4.88;;;4.47;;
6185;SDS011;3126;52.738;8.316;2022-09-29T21:58:09;5.00;;;4.50;;
6185;SDS011;3126;52.738;8.316;2022-09-29T22:03:10;6.07;;;4.75;;
6185;SDS011;3126;52.738;8.316;2022-09-29T22:08:11;5.13;;;4.63;;
6185;SDS011;3126;52.738;8.316;2022-09-29T22:13:11;4.95;;;4.45;;
6185;SDS011;3126;52.738;8.316;2022-09-29T22:18:12;6.10;;;4.65;;
6185;SDS011;3126;52.738;8.316;2022-09-29T22:23:12;4.85;;;4.35;;
6185;SDS011;3126;52.738;8.316;2022-09-29T22:28:13;5.28;;;4.78;;
6185;SDS011;3126;52.738;8.316;2022-09-29T22:33:14;4.45;;;4.05;;
6185;SDS011;3126;52.738;8.316;2022-09-29T22:38:14;5.22;;;4.60;;
6185;SDS011;3126;52.738;8.316;2022-09-29T22:43:15;5.20;;;4.70;;
6185;SDS011;3126;52.738;8.316;2022-09-29T22:48:16;5.90;;;5.40;;
6185;SDS011;3126;52.738;8.316;2022-09-29T22:53:17;6.97;;;5.82;;
6185;SDS011;3126;52.738;8.316;2022-09-29T22:58:18;5.95;;;5.07;;
6185;SDS011;3126;52.738;8.316;2022-09-29T23:03:19;8.27;;;6.50;;
6185;SDS011;3126;52.738;8.316;2022-09-29T23:08:20;6.13;;;5.53;;
6185;SDS011;3126;52.738;8.316;2022-09-29T23:13:22;7.57;;;5.50;;
6185;SDS011;3126;52.738;8.316;2022-09-29T23:18:23;6.70;;;6.10;;
6185;SDS011;3126;52.738;8.316;2022-09-29T23:23:23;9.73;;;6.70;;
6185;SDS011;3126;52.738;8.316;2022-09-29T23:28:24;6.95;;;6.20;;
6185;SDS011;3126;52.738;8.316;2022-09-29T23:33:25;6.35;;;5.45;;
6185;SDS011;3126;52.738;8.316;2022-09-29T23:38:26;6.47;;;5.88;;
6185;SDS011;3126;52.738;8.316;2022-09-29T23:43:46;8.98;;;7.22;;
6185;SDS011;3126;52.738;8.316;2022-09-29T23:48:46;8.50;;;7.10;;
6185;SDS011;3126;52.738;8.316;2022-09-29T23:53:49;10.00;;;9.00;;
6185;SDS011;3126;52.738;8.316;2022-09-29T23:58:50;8.00;;;7.25;;
